Angleton, Texas
Current Conditions -  °F | °C
As of 10:29 AM on Thursday 18 Dec 2014 (Local Time) from KLBX Reporting Station
Light Rain Light Rain  
Wind Chill: 66°   Ceiling: 1100
Heat Index: 66°   Visibility: 5mi
Dew Point: 66°   Wind: 3mph
Humidity: 100%   Direction: 110°ESE
Pressure: 30.11"   Gusts: NA
Location:  29.16°N, 95.43°W
Report Text: KLBX 181629Z AUTO 11003KT 5SM -RA BR FEW002 BKN011 OVC017 19/19 A3011 RMK AO2 P0010 T01890189
Loading
Personal Weather Stations






























Interactive Weather Map New forecast layout! Learn more

10-Day Weather Forecast

Advertisements
Track Severe Weather on mobile